Time;durP1;ratioP1;P1;durP2;ratioP2;P2;SDS_P1;SDS_P2;PMS_P1;PMS_P2;Temp;Humidity;BMP_temperature;BMP_pressure;BME280_temperature;BME280_humidity;BME280_pressure;Samples;Min_cycle;Max_cycle;Signal;HPM_P1;HPM_P2
2022/10/06 00:00:18;;;;;;;9.93;1.30;;;13.60;99.90;;;;;;6182207;23;20427;-73
2022/10/06 00:02:45;;;;;;;5.78;1.15;;;13.70;99.90;;;;;;6183178;23;20005;-73
2022/10/06 00:05:10;;;;;;;4.88;1.00;;;13.60;99.90;;;;;;6182761;23;20008;-73
2022/10/06 00:07:36;;;;;;;7.00;0.90;;;13.60;99.90;;;;;;6183331;23;20005;-73
2022/10/06 00:10:03;;;;;;;10.75;1.02;;;13.60;99.90;;;;;;6180919;23;20037;-73
2022/10/06 00:12:28;;;;;;;7.88;1.70;;;13.60;99.90;;;;;;6182920;23;19998;-73
2022/10/06 00:14:54;;;;;;;5.75;1.83;;;13.70;99.90;;;;;;6182803;23;20165;-74
2022/10/06 00:17:19;;;;;;;6.68;1.77;;;13.70;99.90;;;;;;6182619;23;20005;-73
2022/10/06 00:19:45;;;;;;;9.77;1.00;;;13.60;99.90;;;;;;6182839;23;20001;-73
2022/10/06 00:22:10;;;;;;;9.55;1.05;;;13.60;99.90;;;;;;6182933;23;20004;-72
2022/10/06 00:24:36;;;;;;;7.05;1.23;;;13.50;99.90;;;;;;6182569;23;20012;-73
2022/10/06 00:27:01;;;;;;;7.75;1.15;;;14.20;99.90;;;;;;6181207;23;20330;-72
2022/10/06 00:29:27;;;;;;;9.30;1.20;;;13.50;99.90;;;;;;6182784;23;20063;-72
2022/10/06 00:31:54;;;;;;;9.57;1.20;;;13.40;99.90;;;;;;6182966;23;20435;-72
2022/10/06 00:34:19;;;;;;;6.28;1.38;;;13.50;99.90;;;;;;6182552;23;20013;-73
2022/10/06 00:36:45;;;;;;;8.70;1.33;;;13.50;99.90;;;;;;6183095;23;20004;-72
2022/10/06 00:39:10;;;;;;;8.30;1.27;;;13.40;99.90;;;;;;6182330;23;20024;-72
2022/10/06 00:41:37;;;;;;;9.63;1.10;;;13.40;99.90;;;;;;6182905;23;20431;-73
2022/10/06 00:44:02;;;;;;;15.20;1.42;;;13.40;99.90;;;;;;6182783;23;20008;-73
2022/10/06 00:46:44;;;;;;;9.75;1.20;;;13.40;99.90;;;;;;6182793;23;20004;-73
2022/10/06 00:49:21;;;;;;;11.32;1.75;;;13.40;99.90;;;;;;6182957;23;20388;-73
2022/10/06 00:51:51;;;;;;;11.48;1.30;;;13.50;99.90;;;;;;6182506;23;20012;-73
2022/10/06 00:54:18;;;;;;;7.85;1.27;;;13.40;99.90;;;;;;6182089;23;20100;-72
2022/10/06 00:56:43;;;;;;;13.88;1.75;;;13.30;99.90;;;;;;6182584;23;20000;-73
2022/10/06 00:59:15;;;;;;;10.32;1.27;;;13.40;99.90;;;;;;6182723;23;20497;-72
2022/10/06 01:01:46;;;;;;;9.18;1.48;;;13.30;99.90;;;;;;6182602;23;20327;-73
2022/10/06 01:04:14;;;;;;;7.15;1.45;;;13.30;99.90;;;;;;6182571;23;20009;-73
2022/10/06 01:06:44;;;;;;;10.85;1.67;;;13.40;99.90;;;;;;6182578;23;20001;-72
2022/10/06 01:09:10;;;;;;;8.68;1.23;;;13.30;99.90;;;;;;6182097;23;20076;-73
2022/10/06 01:11:37;;;;;;;12.98;1.25;;;13.20;99.90;;;;;;6182830;23;20049;-73
2022/10/06 01:14:03;;;;;;;11.10;1.50;;;13.20;99.90;;;;;;6182332;23;20005;-72
2022/10/06 01:16:33;;;;;;;11.27;1.80;;;13.20;99.90;;;;;;6182457;23;20135;-73
2022/10/06 01:19:02;;;;;;;11.98;1.27;;;13.20;99.90;;;;;;6182361;23;20001;-73
2022/10/06 01:21:37;;;;;;;12.05;1.10;;;13.20;99.90;;;;;;6182417;23;20001;-73
2022/10/06 01:24:03;;;;;;;12.23;1.33;;;13.10;99.90;;;;;;6182024;23;20013;-73
2022/10/06 01:26:35;;;;;;;15.80;2.35;;;13.00;99.90;;;;;;6182313;23;20060;-73
2022/10/06 01:29:00;;;;;;;9.38;1.45;;;13.00;99.90;;;;;;6182385;23;20037;-73
2022/10/06 01:31:26;;;;;;;9.60;1.60;;;13.10;99.90;;;;;;6182127;23;20004;-73
2022/10/06 01:33:53;;;;;;;12.02;2.83;;;13.00;99.90;;;;;;6182068;23;20016;-72
2022/10/06 01:36:19;;;;;;;9.45;1.40;;;12.90;99.90;;;;;;6182003;23;20012;-72
2022/10/06 01:38:45;;;;;;;10.00;1.50;;;12.90;99.90;;;;;;6181663;23;20004;-72
2022/10/06 01:41:11;;;;;;;10.95;1.27;;;12.90;99.90;;;;;;6180420;23;20088;-73
2022/10/06 01:43:36;;;;;;;7.20;1.40;;;12.90;99.90;;;;;;6182596;23;20005;-72
2022/10/06 01:46:02;;;;;;;13.48;1.90;;;12.90;99.90;;;;;;6181964;23;20434;-72
2022/10/06 01:48:28;;;;;;;8.88;1.70;;;12.80;99.90;;;;;;6182210;23;20016;-73
2022/10/06 01:50:54;;;;;;;11.65;1.95;;;12.90;99.90;;;;;;6182102;23;20008;-72
2022/10/06 01:53:20;;;;;;;7.40;1.75;;;12.90;99.90;;;;;;6181301;23;20347;-73
2022/10/06 01:55:45;;;;;;;11.20;1.23;;;13.00;99.90;;;;;;6182152;23;20012;-73
2022/10/06 01:58:11;;;;;;;8.85;1.50;;;13.10;99.90;;;;;;6182207;23;20555;-73
2022/10/06 02:00:37;;;;;;;7.78;1.80;;;13.10;99.90;;;;;;6182648;23;20326;-72
2022/10/06 02:03:03;;;;;;;7.10;1.45;;;13.10;99.90;;;;;;6182755;23;20059;-73
2022/10/06 02:05:28;;;;;;;11.13;2.22;;;13.10;99.90;;;;;;6182195;23;20005;-73
2022/10/06 02:07:54;;;;;;;15.77;2.25;;;12.90;99.90;;;;;;6181480;23;20012;-73
2022/10/06 02:10:20;;;;;;;9.07;1.77;;;13.00;99.90;;;;;;6182081;23;20024;-72
2022/10/06 02:12:52;;;;;;;12.80;1.65;;;12.90;99.90;;;;;;6182121;23;20005;-73
2022/10/06 02:15:19;;;;;;;10.85;1.83;;;12.90;99.90;;;;;;6181786;23;20001;-72
2022/10/06 02:17:45;;;;;;;11.60;1.27;;;12.70;99.90;;;;;;6182038;23;19997;-73
2022/10/06 02:20:11;;;;;;;7.68;0.82;;;12.70;99.90;;;;;;6181886;23;20009;-73
2022/10/06 02:22:38;;;;;;;8.48;1.38;;;12.60;99.90;;;;;;6182835;23;20328;-72
2022/10/06 02:25:04;;;;;;;10.93;2.55;;;12.50;99.90;;;;;;6185377;23;20084;-72
2022/10/06 02:27:30;;;;;;;9.02;2.78;;;12.50;99.90;;;;;;6185252;23;20307;-73
2022/10/06 02:29:55;;;;;;;10.50;1.58;;;12.50;99.90;;;;;;6185095;23;20016;-73
2022/10/06 02:32:21;;;;;;;11.27;1.52;;;12.40;99.90;;;;;;6184934;23;20012;-72
2022/10/06 02:34:46;;;;;;;12.57;2.28;;;12.30;99.90;;;;;;6185119;23;20384;-72
2022/10/06 02:37:12;;;;;;;14.43;1.30;;;12.40;99.90;;;;;;6184614;23;20114;-72
2022/10/06 02:39:37;;;;;;;9.95;1.40;;;12.30;99.90;;;;;;6185233;23;20004;-72
2022/10/06 02:42:04;;;;;;;12.13;1.42;;;12.30;99.90;;;;;;6185153;23;20036;-72
2022/10/06 02:44:29;;;;;;;14.48;1.83;;;12.10;99.90;;;;;;6185412;23;20490;-72
2022/10/06 02:46:55;;;;;;;9.25;1.48;;;12.10;99.90;;;;;;6184958;23;20032;-72
2022/10/06 02:49:21;;;;;;;10.70;1.38;;;12.10;99.90;;;;;;6184653;23;20005;-73
2022/10/06 02:51:46;;;;;;;11.43;1.38;;;12.00;99.90;;;;;;6184943;23;20465;-72
2022/10/06 02:54:12;;;;;;;10.50;1.60;;;12.00;99.90;;;;;;6185061;23;20003;-72
2022/10/06 02:56:37;;;;;;;10.07;1.58;;;12.00;99.90;;;;;;6184833;23;20005;-72
2022/10/06 02:59:03;;;;;;;16.17;1.75;;;11.90;99.90;;;;;;6185056;23;20076;-73
2022/10/06 03:01:29;;;;;;;8.60;1.92;;;11.90;99.90;;;;;;6185146;23;20008;-72
2022/10/06 03:03:54;;;;;;;11.88;1.48;;;11.90;99.90;;;;;;6184394;23;20327;-72
2022/10/06 03:06:28;;;;;;;8.93;2.05;;;11.90;99.90;;;;;;6185033;23;20008;-72
2022/10/06 03:08:56;;;;;;;8.73;1.23;;;11.80;99.90;;;;;;6185019;23;20001;-72
2022/10/06 03:11:24;;;;;;;14.30;2.80;;;11.70;99.90;;;;;;6185079;23;20486;-73
2022/10/06 03:13:50;;;;;;;10.57;1.65;;;11.90;99.90;;;;;;6184968;23;20001;-72
2022/10/06 03:16:18;;;;;;;10.25;1.45;;;11.70;99.90;;;;;;6184822;23;20079;-73
2022/10/06 03:18:48;;;;;;;11.00;1.42;;;11.60;99.90;;;;;;6184343;23;20427;-72
2022/10/06 03:21:18;;;;;;;6.80;0.90;;;11.70;99.90;;;;;;6185262;23;20008;-73
2022/10/06 03:23:47;;;;;;;9.63;1.77;;;11.70;99.90;;;;;;6185035;23;20008;-73
2022/10/06 03:26:15;;;;;;;12.60;1.83;;;12.20;99.90;;;;;;6184897;23;20009;-73
2022/10/06 03:28:40;;;;;;;12.98;2.10;;;11.80;99.90;;;;;;6185129;23;20072;-72
2022/10/06 03:31:06;;;;;;;10.68;1.65;;;11.70;99.90;;;;;;6184952;23;20436;-72
2022/10/06 03:33:33;;;;;;;8.77;2.05;;;12.70;99.90;;;;;;6183744;23;20073;-72
2022/10/06 03:36:05;;;;;;;9.13;1.45;;;11.60;99.90;;;;;;6182843;23;20005;-73
2022/10/06 03:38:33;;;;;;;18.10;1.95;;;11.60;99.90;;;;;;6183699;23;20474;-73
2022/10/06 03:41:07;;;;;;;12.65;1.50;;;11.50;99.90;;;;;;6183070;23;20036;-73
2022/10/06 03:43:34;;;;;;;15.57;2.10;;;11.60;99.90;;;;;;6183573;23;20080;-73
2022/10/06 03:46:01;;;;;;;10.57;2.13;;;11.50;99.90;;;;;;6183061;23;20446;-72
2022/10/06 03:48:32;;;;;;;9.65;2.33;;;11.50;99.90;;;;;;6183076;23;20001;-73
2022/10/06 03:51:06;;;;;;;21.77;2.55;;;11.40;99.90;;;;;;6183115;23;20063;-73
2022/10/06 03:53:32;;;;;;;;;;;11.40;99.90;;;;;;6182934;23;20008;-72
2022/10/06 03:56:19;;;;;;;11.20;1.33;;;11.40;99.90;;;;;;6182552;23;19970;-72
2022/10/06 03:58:49;;;;;;;8.27;1.30;;;11.40;99.90;;;;;;6182421;23;20080;-72
2022/10/06 04:01:16;;;;;;;7.22;1.63;;;11.30;99.90;;;;;;6182076;23;20309;-72
2022/10/06 04:03:42;;;;;;;6.93;1.10;;;12.60;99.90;;;;;;6181608;23;20032;-72
2022/10/06 04:06:11;;;;;;;10.50;1.20;;;11.30;99.90;;;;;;6182221;23;20379;-72
2022/10/06 04:08:37;;;;;;;14.02;1.48;;;11.20;99.90;;;;;;6182367;23;20001;-72
2022/10/06 04:11:21;;;;;;;7.93;1.17;;;11.30;99.90;;;;;;6182599;23;20013;-72
2022/10/06 04:13:51;;;;;;;;;;;11.20;99.90;;;;;;6183492;23;20000;-72
2022/10/06 04:16:23;;;;;;;9.07;1.40;;;11.20;99.90;;;;;;6182307;23;19915;-72
2022/10/06 04:18:51;;;;;;;10.13;2.25;;;11.20;99.90;;;;;;6183041;23;20001;-73
2022/10/06 04:21:17;;;;;;;11.05;1.58;;;11.10;99.90;;;;;;6182639;23;20001;-72
2022/10/06 04:23:42;;;;;;;11.07;1.70;;;11.10;99.90;;;;;;6183597;23;20001;-72
2022/10/06 04:26:12;;;;;;;12.30;1.10;;;12.10;99.90;;;;;;6182920;23;20391;-72
2022/10/06 04:28:38;;;;;;;8.73;1.90;;;11.10;99.90;;;;;;6182965;23;20005;-73
2022/10/06 04:31:08;;;;;;;8.98;1.52;;;11.10;99.90;;;;;;6182364;23;20033;-73
2022/10/06 04:33:34;;;;;;;8.13;2.20;;;11.00;99.90;;;;;;6182724;23;20096;-72
2022/10/06 04:36:02;;;;;;;10.60;1.40;;;11.10;99.90;;;;;;6182861;23;20794;-72
2022/10/06 04:38:31;;;;;;;15.68;1.85;;;11.50;99.90;;;;;;6182953;23;20124;-73
2022/10/06 04:41:07;;;;;;;13.00;1.85;;;13.20;99.90;;;;;;6182561;23;19997;-72
2022/10/06 04:43:33;;;;;;;13.15;2.67;;;11.00;99.90;;;;;;6182885;23;20031;-73
2022/10/06 04:45:59;;;;;;;15.73;2.15;;;10.90;99.90;;;;;;6181987;23;20009;-73
2022/10/06 04:48:26;;;;;;;7.75;1.75;;;11.50;99.90;;;;;;6182496;23;20009;-72
2022/10/06 04:51:01;;;;;;;17.30;1.33;;;10.90;99.90;;;;;;6182471;23;20001;-72
2022/10/06 04:53:27;;;;;;;10.18;1.70;;;10.90;99.90;;;;;;6183001;23;20304;-73
2022/10/06 04:56:05;;;;;;;12.18;2.03;;;10.90;99.90;;;;;;6182412;23;20009;-73
2022/10/06 04:58:36;;;;;;;11.65;2.13;;;10.90;99.90;;;;;;6182586;23;20367;-72
2022/10/06 05:01:02;;;;;;;9.20;1.80;;;10.80;99.90;;;;;;6181870;23;20001;-72
2022/10/06 05:03:29;;;;;;;11.13;1.98;;;10.80;99.90;;;;;;6182499;23;19997;-72
2022/10/06 05:06:06;;;;;;;11.18;1.30;;;10.80;99.90;;;;;;6182341;23;20012;-72
2022/10/06 05:08:32;;;;;;;13.05;1.88;;;10.80;99.90;;;;;;6182486;23;20449;-72
2022/10/06 05:11:07;;;;;;;16.50;2.47;;;10.80;99.90;;;;;;6182041;23;20005;-72
2022/10/06 05:13:33;;;;;;;9.57;1.88;;;10.70;99.90;;;;;;6181942;23;20012;-72
2022/10/06 05:16:00;;;;;;;7.47;1.70;;;10.70;99.90;;;;;;6181610;23;20123;-73
2022/10/06 05:18:27;;;;;;;7.25;1.52;;;10.70;99.90;;;;;;6182555;23;20080;-73
2022/10/06 05:21:05;;;;;;;12.50;1.35;;;10.70;99.90;;;;;;6182137;23;20036;-73
2022/10/06 05:23:32;;;;;;;9.32;1.40;;;10.70;99.90;;;;;;6182755;23;20219;-72
2022/10/06 05:25:59;;;;;;;5.90;1.35;;;10.60;99.90;;;;;;6182104;23;20019;-72
2022/10/06 05:28:26;;;;;;;9.00;1.60;;;10.60;99.90;;;;;;6182190;23;20434;-72
2022/10/06 05:31:01;;;;;;;13.82;1.95;;;10.60;99.90;;;;;;6182019;23;20004;-73
2022/10/06 05:33:29;;;;;;;8.00;1.38;;;10.60;99.90;;;;;;6182159;23;20427;-72
2022/10/06 05:36:01;;;;;;;12.43;2.42;;;10.50;99.90;;;;;;6181989;23;20005;-73
2022/10/06 05:38:27;;;;;;;13.88;4.18;;;10.50;99.90;;;;;;6182564;23;20363;-73
2022/10/06 05:41:20;;;;;;;8.43;2.38;;;10.50;99.90;;;;;;6181888;23;20032;-72
2022/10/06 05:43:46;;;;;;;14.93;1.92;;;10.50;99.90;;;;;;6180661;23;20001;-72
2022/10/06 05:46:19;;;;;;;4.50;1.42;;;10.60;99.90;;;;;;6181743;23;20059;-72
2022/10/06 05:48:49;;;;;;;12.43;2.10;;;10.50;99.90;;;;;;6181715;23;20016;-73
2022/10/06 05:51:16;;;;;;;9.98;1.70;;;10.50;99.90;;;;;;6181528;23;20043;-73
2022/10/06 05:53:42;;;;;;;14.15;1.83;;;10.40;99.90;;;;;;6181622;23;20024;-73
2022/10/06 05:56:10;;;;;;;12.80;1.52;;;10.40;99.90;;;;;;6182077;23;20068;-72
2022/10/06 05:58:39;;;;;;;12.40;1.55;;;10.30;99.90;;;;;;6181250;23;20020;-72
2022/10/06 06:01:16;;;;;;;11.60;1.38;;;10.40;99.90;;;;;;6182013;23;20008;-72
2022/10/06 06:03:46;;;;;;;15.60;2.55;;;10.50;99.90;;;;;;6182026;23;20048;-72
2022/10/06 06:06:31;;;;;;;21.77;2.55;;;10.40;99.90;;;;;;6181738;23;20016;-72
2022/10/06 06:09:01;;;;;;;8.10;1.63;;;10.50;99.90;;;;;;6181962;23;20458;-72
2022/10/06 06:11:30;;;;;;;9.85;1.83;;;10.40;99.90;;;;;;6182121;23;20008;-72
2022/10/06 06:14:00;;;;;;;10.35;2.17;;;10.30;99.90;;;;;;6181287;23;20415;-72
2022/10/06 06:16:27;;;;;;;16.13;1.98;;;10.40;99.90;;;;;;6182014;23;20008;-73
2022/10/06 06:18:53;;;;;;;14.27;2.50;;;10.40;99.90;;;;;;6181830;23;20036;-73
2022/10/06 06:21:20;;;;;;;9.23;2.35;;;10.40;99.90;;;;;;6181944;23;19997;-73
2022/10/06 06:23:47;;;;;;;10.65;1.95;;;10.40;99.90;;;;;;6182122;23;20119;-73
2022/10/06 06:26:18;;;;;;;11.38;2.17;;;10.50;99.90;;;;;;6181753;23;20009;-72
2022/10/06 06:28:49;;;;;;;8.88;1.42;;;10.50;99.90;;;;;;6181449;23;20005;-73
2022/10/06 06:31:19;;;;;;;15.50;2.53;;;10.50;99.90;;;;;;6181776;23;20029;-74
2022/10/06 06:33:46;;;;;;;12.40;3.13;;;10.30;99.90;;;;;;6181731;23;20051;-73
2022/10/06 06:36:16;;;;;;;13.30;2.22;;;10.60;99.90;;;;;;6181457;23;20005;-73
2022/10/06 06:38:44;;;;;;;9.38;2.55;;;10.60;99.90;;;;;;6181981;23;20024;-73
2022/10/06 06:41:22;;;;;;;15.60;2.35;;;10.60;99.90;;;;;;6182172;23;20001;-74
2022/10/06 06:43:49;;;;;;;17.60;3.13;;;11.30;99.90;;;;;;6182280;23;20128;-73
2022/10/06 06:46:16;;;;;;;12.55;1.95;;;10.60;99.90;;;;;;6181892;23;20001;-73
2022/10/06 06:48:42;;;;;;;11.77;2.53;;;10.60;99.90;;;;;;6181843;23;20006;-73
2022/10/06 06:51:12;;;;;;;14.10;2.58;;;10.50;99.90;;;;;;6181952;23;20009;-73
2022/10/06 06:53:38;;;;;;;12.02;2.42;;;10.70;99.90;;;;;;6182159;23;20056;-74
2022/10/06 06:56:05;;;;;;;11.73;2.60;;;10.70;99.90;;;;;;6181655;23;20059;-75
2022/10/06 06:58:31;;;;;;;12.57;3.15;;;10.80;99.90;;;;;;6181994;23;20502;-73
2022/10/06 07:01:10;;;;;;;13.57;2.80;;;10.80;99.90;;;;;;6181651;23;20044;-73
2022/10/06 07:03:38;;;;;;;10.90;2.33;;;10.80;99.90;;;;;;6181739;23;20004;-73
2022/10/06 07:06:08;;;;;;;18.52;3.10;;;10.90;99.90;;;;;;6177335;23;20004;-73
2022/10/06 07:08:35;;;;;;;10.52;2.42;;;10.80;99.90;;;;;;6181144;23;20075;-73
2022/10/06 07:11:14;;;;;;;14.45;3.28;;;10.90;99.90;;;;;;6180424;23;20509;-73
2022/10/06 07:13:39;;;;;;;14.77;2.42;;;10.90;99.90;;;;;;6181932;23;20032;-73
2022/10/06 07:25:20;;;;;;;24.83;3.03;;;11.10;99.90;;;;;;6180018;23;20039;-74
2022/10/06 07:27:15;;;;;;;14.82;3.03;;;11.10;99.90;;;;;;6162757;23;20082;-73
2022/10/06 07:29:40;;;;;;;18.45;3.80;;;11.20;99.90;;;;;;6182443;23;20020;-73
2022/10/06 07:32:06;;;;;;;19.00;4.25;;;11.00;99.90;;;;;;6182979;23;20387;-73
2022/10/06 07:34:31;;;;;;;12.55;2.17;;;11.30;99.90;;;;;;6179987;23;20024;-73
2022/10/06 07:36:57;;;;;;;13.38;2.53;;;11.30;99.90;;;;;;6182234;23;20009;-73
2022/10/06 07:39:22;;;;;;;15.40;2.63;;;11.30;99.90;;;;;;6182351;23;20005;-73
2022/10/06 07:41:48;;;;;;;14.45;2.70;;;11.40;99.90;;;;;;6182940;23;20008;-73
2022/10/06 07:44:13;;;;;;;16.83;2.83;;;11.40;99.90;;;;;;6180256;23;19997;-73
2022/10/06 07:46:39;;;;;;;9.75;2.67;;;11.50;99.90;;;;;;6182296;23;20017;-74
2022/10/06 07:49:04;;;;;;;20.30;3.85;;;11.50;99.90;;;;;;6181768;23;20013;-74
2022/10/06 07:51:30;;;;;;;13.95;3.28;;;11.60;99.90;;;;;;6181760;23;20015;-73
2022/10/06 07:53:55;;;;;;;10.75;2.63;;;11.70;99.90;;;;;;6181275;23;20021;-74
2022/10/06 07:56:21;;;;;;;16.23;3.88;;;11.60;99.90;;;;;;6181218;23;20331;-74
2022/10/06 07:58:47;;;;;;;18.13;3.00;;;11.70;99.90;;;;;;6182671;23;20443;-74
2022/10/06 08:01:15;;;;;;;16.65;3.83;;;11.70;99.90;;;;;;6182328;23;20005;-74
2022/10/06 08:03:42;;;;;;;15.50;3.45;;;11.80;99.90;;;;;;6181416;23;19997;-73
2022/10/06 08:06:14;;;;;;;12.38;2.97;;;11.80;99.90;;;;;;6181315;23;20013;-73
2022/10/06 08:08:43;;;;;;;13.73;2.33;;;11.90;99.90;;;;;;6180724;23;20013;-74
2022/10/06 08:11:12;;;;;;;16.20;4.45;;;12.00;99.90;;;;;;6182256;23;20419;-74
2022/10/06 08:13:41;;;;;;;14.73;4.38;;;12.00;99.90;;;;;;6181190;23;20056;-74
2022/10/06 08:16:16;;;;;;;18.52;3.00;;;12.10;99.90;;;;;;6182775;23;20327;-74
2022/10/06 08:18:42;;;;;;;23.17;4.38;;;12.20;99.90;;;;;;6180898;23;20004;-74
2022/10/06 08:21:16;;;;;;;11.52;2.90;;;12.20;99.90;;;;;;6181680;23;20013;-74
2022/10/06 08:23:43;;;;;;;8.82;2.78;;;12.30;99.90;;;;;;6180612;23;20001;-74
2022/10/06 08:26:10;;;;;;;14.20;2.22;;;12.30;99.90;;;;;;6182651;23;20013;-74
2022/10/06 08:28:36;;;;;;;12.10;2.53;;;12.40;99.90;;;;;;6181268;23;20012;-74
2022/10/06 08:31:10;;;;;;;17.80;3.30;;;12.50;99.90;;;;;;6179374;23;20451;-74
2022/10/06 08:33:41;;;;;;;11.75;2.78;;;12.50;99.90;;;;;;6181587;23;20055;-74
2022/10/06 08:36:09;;;;;;;16.42;3.25;;;12.40;99.90;;;;;;6182279;23;20040;-75
2022/10/06 08:38:36;;;;;;;13.93;2.97;;;12.60;99.90;;;;;;6180954;23;20411;-74
2022/10/06 08:41:23;;;;;;;18.60;2.50;;;12.70;99.90;;;;;;6180881;23;20001;-74
2022/10/06 08:44:01;;;;;;;8.10;1.90;;;12.70;99.90;;;;;;6180235;23;20084;-74
2022/10/06 08:46:59;;;;;;;17.73;2.75;;;12.80;99.90;;;;;;6182202;23;20382;-74
2022/10/06 08:49:27;;;;;;;9.50;1.20;;;12.90;99.90;;;;;;6171487;23;20013;-74
2022/10/06 08:52:01;;;;;;;16.40;1.83;;;12.90;99.90;;;;;;6180381;23;20001;-73
2022/10/06 08:54:47;;;;;;;12.75;3.33;;;13.00;99.90;;;;;;6181285;23;20025;-74
2022/10/06 08:57:19;;;;;;;7.47;1.42;;;13.10;99.90;;;;;;6182092;23;20447;-74
2022/10/06 08:59:48;;;;;;;12.70;2.47;;;13.20;99.90;;;;;;6182119;23;20418;-74
2022/10/06 09:02:46;;;;;;;8.35;1.55;;;13.20;99.90;;;;;;6180645;23;20004;-73
2022/10/06 09:05:22;;;;;;;10.68;1.88;;;13.40;99.90;;;;;;6181396;23;20088;-73
2022/10/06 09:08:15;;;;;;;12.80;2.15;;;13.50;99.90;;;;;;6181934;23;20005;-74
2022/10/06 09:10:58;;;;;;;9.80;1.20;;;13.50;99.90;;;;;;6182401;23;20001;-74
2022/10/06 09:13:33;;;;;;;11.33;1.47;;;13.60;99.90;;;;;;6179217;23;20005;-74
2022/10/06 09:16:06;;;;;;;6.65;1.10;;;13.60;99.90;;;;;;6182049;23;20009;-74
2022/10/06 09:19:00;;;;;;;11.13;1.58;;;13.70;99.90;;;;;;6182522;23;20124;-74
2022/10/06 09:21:46;;;;;;;15.82;2.70;;;13.80;99.90;;;;;;6181876;23;20477;-75
2022/10/06 09:24:15;;;;;;;5.88;1.42;;;13.80;99.90;;;;;;6179623;23;20371;-75
2022/10/06 09:26:44;;;;;;;7.13;1.52;;;13.90;99.90;;;;;;6181896;23;20020;-75
2022/10/06 09:29:10;;;;;;;7.20;1.42;;;14.00;99.90;;;;;;6182123;23;20028;-77
2022/10/06 09:31:49;;;;;;;10.93;1.40;;;14.00;99.90;;;;;;6179839;23;20012;-75
2022/10/06 09:34:40;;;;;;;11.93;1.20;;;14.00;99.90;;;;;;6178676;23;20024;-76
2022/10/06 09:37:09;;;;;;;4.80;0.70;;;14.20;99.90;;;;;;6180747;23;20001;-73
2022/10/06 09:39:48;;;;;;;9.68;1.13;;;14.10;99.90;;;;;;6181507;23;20368;-74
2022/10/06 09:42:34;;;;;;;10.57;1.60;;;14.00;99.90;;;;;;6181026;23;20013;-74
2022/10/06 09:45:24;;;;;;;7.20;1.55;;;14.40;99.90;;;;;;6178037;23;20502;-74
2022/10/06 09:47:49;;;;;;;7.65;1.80;;;14.30;99.90;;;;;;6182058;23;20024;-74
2022/10/06 09:50:20;;;;;;;10.20;2.42;;;14.50;99.90;;;;;;6181102;23;20304;-74
2022/10/06 09:53:02;;;;;;;10.05;1.30;;;14.50;99.90;;;;;;6181402;23;20005;-74
2022/10/06 09:55:36;;;;;;;10.50;1.60;;;14.70;99.90;;;;;;6180781;23;20446;-74
2022/10/06 09:58:23;;;;;;;6.60;1.38;;;14.80;99.90;;;;;;6179788;23;20383;-75
2022/10/06 10:00:56;;;;;;;9.77;1.38;;;14.80;99.90;;;;;;6178309;23;20445;-75
2022/10/06 10:03:25;;;;;;;10.50;1.60;;;15.10;99.90;;;;;;6179970;23;20032;-75
2022/10/06 10:05:54;;;;;;;14.73;1.58;;;14.90;99.90;;;;;;6180714;23;20001;-75
2022/10/06 10:08:24;;;;;;;7.38;0.90;;;15.00;99.90;;;;;;6179864;23;20029;-75
2022/10/06 10:12:23;;;;;;;5.80;1.20;;;15.10;99.90;;;;;;6182074;23;20008;-75
2022/10/06 10:13:58;;;;;;;6.68;1.15;;;14.90;99.90;;;;;;6179456;23;20335;-75
2022/10/06 10:16:33;;;;;;;9.13;1.27;;;15.20;99.90;;;;;;6181489;23;20081;-75
2022/10/06 10:18:59;;;;;;;5.05;0.80;;;15.20;99.90;;;;;;6178321;23;19997;-75
2022/10/06 10:21:29;;;;;;;5.30;1.67;;;15.40;99.90;;;;;;6180931;23;20031;-75
2022/10/06 10:24:01;;;;;;;5.10;0.80;;;15.30;99.90;;;;;;6179361;23;20055;-75
2022/10/06 10:26:56;;;;;;;5.15;0.80;;;15.10;99.90;;;;;;6181485;23;20072;-75
2022/10/06 10:29:47;;;;;;;10.30;1.63;;;15.50;99.90;;;;;;6179628;23;20699;-75
2022/10/06 10:32:22;;;;;;;7.30;1.17;;;15.70;99.90;;;;;;6182062;23;20005;-77
2022/10/06 10:35:21;;;;;;;9.02;1.25;;;15.80;99.90;;;;;;6179751;23;20559;-76
2022/10/06 10:37:58;;;;;;;8.07;1.40;;;15.80;99.90;;;;;;6181453;23;20097;-75
2022/10/06 10:40:28;;;;;;;8.15;1.42;;;15.90;99.90;;;;;;6179390;23;20016;-75
2022/10/06 10:43:30;;;;;;;9.40;1.50;;;16.00;99.90;;;;;;6180634;23;20012;-75
2022/10/06 10:46:09;;;;;;;18.83;1.65;;;16.10;99.90;;;;;;6183548;23;20076;-75
2022/10/06 10:48:40;;;;;;;7.78;1.70;;;16.20;99.90;;;;;;6183024;23;20411;-75
2022/10/06 10:51:13;;;;;;;3.08;0.98;;;16.20;99.90;;;;;;6182586;23;20001;-75
2022/10/06 10:53:42;;;;;;;9.55;1.23;;;16.20;99.90;;;;;;6181809;23;20012;-76
2022/10/06 10:56:10;;;;;;;8.38;1.08;;;16.10;99.90;;;;;;6183551;23;20008;-75
2022/10/06 10:58:40;;;;;;;9.38;0.90;;;16.10;99.90;;;;;;6183829;23;20273;-75
2022/10/06 11:01:32;;;;;;;9.50;1.67;;;16.00;99.90;;;;;;6183717;23;20330;-75
2022/10/06 11:03:59;;;;;;;4.40;0.80;;;16.10;99.90;;;;;;6180398;23;20004;-76
2022/10/06 11:06:42;;;;;;;7.22;1.10;;;16.00;99.90;;;;;;6183492;23;20027;-75
2022/10/06 11:09:22;;;;;;;6.97;1.30;;;15.80;99.90;;;;;;6181044;23;20009;-75
2022/10/06 11:12:32;;;;;;;5.50;0.65;;;15.90;99.90;;;;;;6183410;23;20008;-75
2022/10/06 11:15:24;;;;;;;6.60;1.55;;;15.80;99.90;;;;;;6150689;23;20434;-75
2022/10/06 11:17:52;;;;;;;13.27;2.08;;;15.80;99.90;;;;;;6136615;23;20367;-75
2022/10/06 11:20:36;;;;;;;6.72;0.85;;;16.10;99.90;;;;;;6182996;23;20327;-75
2022/10/06 11:23:05;;;;;;;;;;;16.30;99.90;;;;;;6182543;23;20020;-76
2022/10/06 11:25:55;;;;;;;4.78;1.10;;;16.40;99.90;;;;;;6182122;23;19927;-75
2022/10/06 11:28:30;;;;;;;7.78;0.85;;;16.60;99.90;;;;;;6182513;23;20036;-74
2022/10/06 11:31:20;;;;;;;5.22;0.98;;;16.30;99.90;;;;;;6183184;23;20009;-74
2022/10/06 11:33:51;;;;;;;5.60;1.20;;;16.20;99.90;;;;;;6181714;23;20009;-74
2022/10/06 11:36:45;;;;;;;7.40;1.27;;;16.10;99.90;;;;;;6181055;23;20068;-74
2022/10/06 11:39:35;;;;;;;8.60;1.25;;;16.10;99.90;;;;;;6182725;23;20844;-74
2022/10/06 11:42:27;;;;;;;4.90;0.82;;;15.90;99.90;;;;;;6182812;23;20064;-74
2022/10/06 11:45:02;;;;;;;6.28;1.08;;;15.90;99.90;;;;;;6181707;23;20193;-75
2022/10/06 11:47:39;;;;;;;6.93;1.08;;;15.90;99.90;;;;;;6181140;23;20008;-74
2022/10/06 11:50:35;;;;;;;10.73;1.38;;;16.10;99.90;;;;;;6182821;23;19997;-75
2022/10/06 11:53:01;;;;;;;3.03;0.77;;;16.00;99.90;;;;;;6181316;23;20005;-75
2022/10/06 11:55:27;;;;;;;9.27;1.48;;;16.20;99.90;;;;;;6181354;23;20017;-74
2022/10/06 11:58:11;;;;;;;7.05;1.33;;;16.30;99.90;;;;;;6181196;23;20059;-74
2022/10/06 12:00:37;;;;;;;4.90;1.10;;;16.60;99.90;;;;;;6181734;23;20431;-75
2022/10/06 12:03:27;;;;;;;6.60;0.85;;;17.10;99.90;;;;;;6181788;23;20001;-75
2022/10/06 12:05:53;;;;;;;7.20;0.63;;;16.60;99.20;;;;;;6182412;23;20016;-75
2022/10/06 12:08:40;;;;;;;9.10;1.10;;;16.40;99.60;;;;;;6180802;23;20032;-75
2022/10/06 12:11:41;;;;;;;10.15;1.10;;;16.40;99.80;;;;;;6182887;23;20001;-75
2022/10/06 12:14:33;;;;;;;4.03;1.00;;;16.20;99.30;;;;;;6180580;23;20029;-76
2022/10/06 12:17:10;;;;;;;5.20;0.88;;;16.10;99.40;;;;;;6181632;23;20370;-74
2022/10/06 12:19:56;;;;;;;8.48;1.13;;;16.20;99.90;;;;;;6180842;23;20001;-74
2022/10/06 12:22:30;;;;;;;7.20;1.85;;;16.20;99.60;;;;;;6182377;23;20327;-75
2022/10/06 12:24:59;;;;;;;5.68;1.00;;;16.30;99.90;;;;;;6180992;23;20120;-74
2022/10/06 12:27:48;;;;;;;5.25;0.75;;;16.50;99.20;;;;;;6182187;23;20386;-74
2022/10/06 12:30:31;;;;;;;4.95;0.82;;;16.50;99.10;;;;;;6178083;23;20009;-74
2022/10/06 12:32:59;;;;;;;6.40;0.88;;;16.70;99.20;;;;;;6181254;23;20036;-74
2022/10/06 12:35:30;;;;;;;9.13;1.15;;;16.70;99.60;;;;;;6181456;23;20001;-75
2022/10/06 12:38:01;;;;;;;6.75;1.48;;;16.90;98.30;;;;;;6182370;23;20391;-75
2022/10/06 12:40:48;;;;;;;8.40;1.10;;;16.70;99.20;;;;;;6181570;23;19997;-75
2022/10/06 12:43:16;;;;;;;8.07;1.80;;;17.00;99.50;;;;;;6181174;23;20009;-75
2022/10/06 12:45:54;;;;;;;10.75;1.23;;;17.10;98.80;;;;;;6181108;23;20005;-75
2022/10/06 12:48:25;;;;;;;6.97;1.45;;;17.20;98.40;;;;;;6181251;23;20016;-75
2022/10/06 12:51:00;;;;;;;5.15;1.48;;;17.60;99.30;;;;;;6179650;23;20013;-75
2022/10/06 12:53:36;;;;;;;6.90;1.35;;;17.20;99.00;;;;;;6180903;23;20001;-74
2022/10/06 12:56:04;;;;;;;4.90;0.80;;;17.20;98.90;;;;;;6181584;23;20007;-75
2022/10/06 12:58:32;;;;;;;9.52;1.58;;;17.40;98.70;;;;;;6180080;23;20502;-75
2022/10/06 13:01:05;;;;;;;7.55;1.38;;;17.30;98.20;;;;;;6182044;23;19997;-75
2022/10/06 13:03:30;;;;;;;7.10;1.10;;;17.80;98.30;;;;;;6179201;23;20001;-74
2022/10/06 13:05:59;;;;;;;6.35;1.25;;;17.10;97.80;;;;;;6179477;23;20016;-74
2022/10/06 13:08:27;;;;;;;6.30;1.02;;;16.90;98.10;;;;;;6180607;23;20009;-74
2022/10/06 13:11:19;;;;;;;7.82;1.10;;;16.80;98.00;;;;;;6179975;23;20300;-74
2022/10/06 13:13:50;;;;;;;8.48;1.23;;;16.50;97.90;;;;;;6177601;23;20005;-74